Silver Peak Trail, Santa Catalina Island Weather observations

Data are for 10 minute period ending at time listed.
 Day   Time   Solar   Ave.   Ave.  Ave.  Vector    Max.   Stn.    Total
  of    of     Rad.   Air    Rel.  Wind   Wind     Wind   Baro.  Precip.
Year   Day            Temp.  Hum.  Speed  Dir.     Gust   Pres.         
2014   (PST)   W/m2    F      %     mph   deg.      mph    mb.     in.  
------------------------------------------------------------------------
 243    4:40    0.0    80   34.2     5     13.7     6.0    999.0   0.00  
 243    4:50    0.0    80   34.7     5     14.8     6.0    999.0   0.00  
 243    5:00    0.0    79   36.0     3    353.2     4.8    999.0   0.00  
 243    5:10    0.0    79   36.3     5      9.4     5.4    999.0   0.00  
 243    5:20    0.0    78   37.3     4     12.2     4.8    999.0   0.00  
 243    5:30    2.0    78   36.9     3    343.8     6.0    999.0   0.00  
 243    5:40   12.0    77   41.7     4    348.8     5.4    999.0   0.00  
 243    5:50   39.0    77   41.3     2    333.9     4.2    999.0   0.00  
 243    6:00   68.0    78   38.9     2    321.4     3.0    999.0   0.00  
 243    6:10   97.0    80   37.8     2     14.8     1.8    999.0   0.00  
 243    6:20  129.0    81   39.5     1    154.1     2.4    999.0   0.00  
 243    6:30  161.0    82   39.1     1    142.9     1.8    999.0   0.00  
 243    6:40  195.0    82   39.5     1    126.5     3.0    999.0   0.00  
 243    6:50  229.0    80   45.0     2     37.2     3.0    999.0   0.00  
 243    7:00  264.0    78   48.0     2    103.9     5.4    999.0   0.00  
 243    7:10  300.0    79   51.7     2     62.8     4.8    999.0   0.00  
 243    7:20  336.0    80   49.6     2     32.6     3.6    999.0   0.00  
 243    7:30  371.0    78   53.3     2    340.9     4.8    999.0   0.00  
 243    7:40  406.0    79   55.5     2    128.7     5.4    999.0   0.00  
 243    7:50  440.0    78   61.8     2    138.4     4.8    999.0   0.00  
 243    8:00  475.0    78   64.8     3     52.5     4.8    999.0   0.00  
 243    8:10  508.0    78   60.3     4     44.9     7.2    999.0   0.00  
 243    8:20  541.0    78   50.2     5     35.3     7.2    999.0   0.00  
 243    8:30  573.0    79   51.3     3     32.6     5.4    999.0   0.00  
 243    8:40  605.0    79   62.6     3     32.8     4.8    999.0   0.00  
 243    8:50  636.0    78   66.2     3     46.2     4.8    999.0   0.00  
 243    9:00  666.0    80   63.3     2    119.8     4.8    999.0   0.00  
 243    9:10  693.0    77   69.3     5     21.4     7.8    999.0   0.00  
 243    9:20  720.0    75   72.3     3     11.6     6.0    999.0   0.00  
 243    9:30  746.0    75   73.1     3     19.6     4.8    999.0   0.00  
 243    9:40  771.0    75   73.7     3     35.3     5.4    999.0   0.00  
 243    9:50  796.0    78   68.6     3    127.6     6.6    999.0   0.00  
 243   10:00  818.0    77   70.0     4    106.5     8.4    999.0   0.00  
 243   10:10  838.0    79   66.7     4     38.5     6.6    999.0   0.00  
 243   10:20  857.0    79   63.2     3     95.7     4.8    999.0   0.00  
 243   10:30  874.0    80   60.2     4     26.1     6.6    999.0   0.00  
 243   10:40  890.0    78   67.1     4     29.1     6.6    999.0   0.00  
 243   10:50  903.0    76   71.6     4     34.5     6.6    999.0   0.00  
 243   11:00  915.0    77   69.8     4     29.2     6.6    999.0   0.00  
 243   11:10  928.0    80   66.4     3     48.9     5.4    999.0   0.00  
 243   11:20  936.0    79   67.3     4     31.5     6.6    999.0   0.00  
 243   11:30  942.0    78   66.8     4     20.9     6.0    999.0   0.00  
 243   11:40  945.0    79   66.9     4     44.3     5.4    999.0   0.00  
 243   11:50  948.0    78   68.2     3     43.9     6.0    999.0   0.00  
 243   12:00  952.0    77   71.6     3     22.7     6.0    999.0   0.00  
 243   12:10  951.0    76   72.6     3     34.2     6.6    999.0   0.00  
 243   12:20  948.0    79   67.6     3    341.8     6.6    999.0   0.00  
 243   12:30  944.0    80   65.8     3    220.0     6.6    999.0   0.00  
 243   12:40  936.0    80   64.8     4    224.4    10.2    999.0   0.00  
 243   12:50  927.0    80   65.1     3      3.6     6.6    999.0   0.00  
 243   13:00  918.0    80   65.2     3    283.8     6.0    999.0   0.00  
 243   13:10  906.0    81   63.7     3    250.8     5.4    999.0   0.00  
 243   13:20  893.0    80   63.7     3    324.7     6.0    999.0   0.00  
 243   13:30  876.0    79   67.5     3     21.1     5.4    999.0   0.00  
 243   13:40  860.0    80   65.4     3    353.0     4.8    999.0   0.00  
 243   13:50  842.0    80   64.6     4    228.9     6.6    999.0   0.00  
 243   14:00  822.0    80   65.9     3    294.1     6.0    999.0   0.00  
 243   14:10  801.0    81   63.5     3    278.8     6.6    999.0   0.00  
 243   14:20  779.0    81   62.2     3    220.3     6.0    999.0   0.00  
 243   14:30  753.0    80   64.2     4    241.4     7.8    999.0   0.00  
 243   14:40  728.0    81   63.7     3    286.2     4.8    999.0   0.00  
 243   14:50  700.0    81   63.9     4    267.4     7.2    999.0   0.00  
 243   15:00  671.0    79   67.0     4    243.7     8.4    999.0   0.00  
 243   15:10  641.0    79   66.6     5    208.9     7.2    999.0   0.00  
 243   15:20  611.0    78   68.2     5    205.8     9.6    999.0   0.00  
 243   15:30  580.0    79   66.7     5    213.1     7.2    999.0   0.00  
 243   15:40  549.0    80   64.8     5    215.7     8.4    999.0   0.00  
 243   15:50  517.0    78   69.5     6    216.5    10.8    999.0   0.00  
 243   16:00  484.0    77   69.3     5    226.4     9.6    999.0   0.00  
 243   16:10  450.0    78   68.1     6    232.1     7.8    999.0   0.00  
 243   16:20  416.0    78   66.5     6    241.4     9.6    999.0   0.00  
 243   16:30  381.0    77   67.7     5    253.5     9.0    999.0   0.00  
 243   16:40  346.0    78   61.6     6    268.5     9.0    999.0   0.00  
 243   16:50  312.0    78   58.1     6    294.0    11.3    999.0   0.00  
 243   17:00  276.0    78   54.8     6    294.0    10.8    999.0   0.00  
 243   17:10  240.0    78   54.2     5    304.1    10.8    999.0   0.00  
 243   17:20  206.0    79   47.8     5    300.1     7.2    999.0   0.00  
 243   17:30  172.0    80   52.8     3    240.2     5.4    999.0   0.00  
 243   17:40  140.0    80   50.5     4    240.6     6.6    999.0   0.00  
 243   17:50  109.0    78   56.7     4    218.4     6.0    999.0   0.00  
 243   18:00   80.0    77   56.5     5    217.4     7.2    999.0   0.00  
 243   18:10   54.0    75   54.2     5    218.5     7.8    999.0   0.00  
 243   18:20   29.0    76   46.5     3    233.1     4.2    999.0   0.00  
 243   18:30    7.0    75   49.2     2    227.3     3.6    999.0   0.00  
 243   18:40    1.0    74   46.3     1    207.2     3.0    999.0   0.00  
 243   18:50    0.0    75   42.9     1    202.0     3.6    999.0   0.00  
 243   19:00    0.0    75   44.2     3    190.0     4.8    999.0   0.00  
 243   19:10    0.0    75   43.3     2    191.5     4.2    999.0   0.00  
 243   19:20    0.0    75   43.9     2    188.1     3.6    999.0   0.00  
 243   19:30    0.0    74   45.1     4    187.8     7.2    999.0   0.00  
 243   19:40    0.0    74   45.9     6    199.1     7.8    999.0   0.00  
 243   19:50    0.0    73   47.0     7    202.9     9.0    999.0   0.00  
 243   20:00    0.0    71   51.6     7    212.4     9.0    999.0   0.00  
 243   20:10    0.0    70   47.3     8    212.7     9.6    999.0   0.00  
 243   20:20    0.0    71   45.7     9    208.5    10.8    999.0   0.00  
 243   20:30    0.0    71   44.2     9    209.7    11.3    999.0   0.00  
 243   20:40    0.0    71   45.2     4    210.0     7.2    999.0   0.00  
 243   20:50    0.0    71   44.8     4    211.3     6.6    999.0   0.00  
 243   21:00    0.0    69   62.1     2    306.9     3.6    999.0   0.00  
 243   21:10    0.0    69   61.1     3    211.3     5.4    999.0   0.00  
 243   21:20    0.0    69   56.4     3    174.4     5.4    999.0   0.00  
 243   21:30    0.0    69   59.7     4    168.5     6.0    999.0   0.00  
 243   21:40    0.0    67   68.4     5    160.4     8.4    999.0   0.00  
 243   21:50    0.0    67   67.5     5    155.6     7.8    999.0   0.00  
 243   22:00    0.0    66   71.8     7    166.4     9.0    999.0   0.00  
 243   22:10    0.0    66   69.0     6    155.0     9.0    999.0   0.00  
 243   22:20    0.0    65   75.1     5    132.0     7.2    999.0   0.00  
 243   22:30    0.0    66   68.9     5    102.4     7.8    999.0   0.00  
 243   22:40    0.0    65   71.9     6    111.9     9.0    999.0   0.00  
 243   22:50    0.0    67   64.8     9    115.6    10.8    999.0   0.00  
 243   23:00    0.0    67   61.1     7    108.3    10.8    999.0   0.00  
 243   23:10    0.0    68   55.2     7    104.3     9.6    999.0   0.00  
 243   23:20    0.0    66   65.2     7     79.0     9.6    999.0   0.00  
 243   23:30    0.0    67   62.6     8     58.3    11.3    999.0   0.00  
 243   23:40    0.0    67   65.7     7     67.3    10.2    999.0   0.00  
 243   23:50    0.0    65   74.3     6     81.1     8.4    999.0   0.00  
 244    0:00    0.0    65   76.0     7     83.4     9.0    999.0   0.00  
 244    0:10    0.0    66   70.8     7     51.8    10.8    999.0   0.00  
 244    0:20    0.0    67   62.3     8     70.7    11.3    999.0   0.00  
 244    0:30    0.0    66   67.2     7     80.6    12.5    999.0   0.00  
 244    0:40    0.0    66   65.0     9     78.2    12.5    999.0   0.00  
 244    0:50    0.0    66   69.4    10     84.2    11.9    999.0   0.00  
 244    1:00    0.0    65   74.3     9     86.4    11.3    999.0   0.00  
 244    1:10    0.0    65   76.5     9     77.1    11.3    999.0   0.00  
 244    1:20    0.0    64   81.3     9     61.8    13.1    999.0   0.00  
 244    1:30    0.0    63   86.3     9     79.3    12.5    999.0   0.00  
 244    1:40    0.0    64   82.9    10     82.6    13.7    999.0   0.00  
 244    1:50    0.0    64   85.2     8     94.9    12.5    999.0   0.00  
 244    2:00    0.0    64   84.9     7     94.6     9.6    999.0   0.00  
 244    2:10    0.0    63   85.7     8     63.0    10.2    999.0   0.00  
 244    2:20    0.0    62   90.9     7     51.3     9.0    999.0   0.00  
 244    2:30    0.0    62   92.8    10     47.0    11.3    999.0   0.00  
 244    2:40    0.0    62   94.2    12     53.1    16.1    999.0   0.00  
 244    2:50    0.0    62   94.7    14     54.0    16.7    999.0   0.00  
 244    3:00    0.0    62   95.1    14     46.6    18.5    999.0   0.00  
 244    3:10    0.0    62   95.3    15     36.9    17.3    999.0   0.00  
 244    3:20    0.0    62   95.5    16     40.7    19.7    999.0   0.00  
 244    3:30    0.0    62   95.6    18     46.8    20.9    999.0   0.00  
 244    3:40    0.0    62   95.7    17     43.7    20.9    999.0   0.00  
 244    3:50    0.0    62   95.8    14     41.1    19.1    999.0   0.00  
 244    4:00    0.0    62   95.9    13     56.0    17.9    999.0   0.00  
 244    4:10    0.0    62   95.9    14     59.0    19.1    999.0   0.00  
 244    4:20    0.0    62   96.0    14     55.3    18.5    999.0   0.00  
 244    4:30    0.0    62   96.1    13     52.5    17.9    999.0   0.00  

Return to Silver Peak Trail graphs page.


Western Regional Climate Center,wrcc@dri.edu